EKKA/KRP METAR and TAF weather

Enter ICAO airport designator
Station Type Date Time Source
EKKA METAR 2019/02/21 11:20 UTC NOAA

EKKA 211120Z 26010KT 3500 BR BKN004 08/08 Q1018 TEMPO 5000 BKN007


Station Type Date Time Source
EKKA Decoded METAR 2019/02/21 11:20 UTC NOAA

Karup, Denmark (EKKA) 56-18N 009-07E 53M
Feb 21, 2019 - 06:20 AM EST / 2019.02.21 1120 UTC
Wind: from the W (260 degrees) at 12 MPH (10 KT):0
Visibility: 2 mile(s):0
Sky conditions: mostly cloudy
Weather: mist
Temperature: 46 F (8 C)
Dew Point: 46 F (8 C)
Relative Humidity: 100%
Pressure (altimeter): 30.06 in. Hg (1018 hPa)
ob: EKKA 211120Z 26010KT 3500 BR BKN004 08/08 Q1018 TEMPO 5000 BKN007
cycle: 11

Station Type Date Time Source
EKKA TAF 2019/02/21 12:30 UTC NOAA

TAF TAF EKKA 211121Z 2112/2212 29010KT 5000 BR BKN006
TEMPO 2112/2123 1200 -RADZ BKN002
BECMG 2120/2123 01006KT
TEMPO 2123/2206 9999 NSW BKN004
BECMG 2203/2206 10008KT
BECMG 2206/2209 14007KT 9999 NSW SCT100


Example: see airport list